sensor_id;sensor_type;location;lat;lon;timestamp;P1;durP1;ratioP1;P2;durP2;ratioP2
73428;SDS011;61643;49.564;17.412;2024-01-06T00:02:15;11.50;;;5.47;;
73428;SDS011;61643;49.564;17.412;2024-01-06T00:04:41;10.57;;;5.82;;
73428;SDS011;61643;49.564;17.412;2024-01-06T00:07:07;10.30;;;5.38;;
73428;SDS011;61643;49.564;17.412;2024-01-06T00:09:33;10.90;;;6.07;;
73428;SDS011;61643;49.564;17.412;2024-01-06T00:11:59;13.20;;;5.18;;
73428;SDS011;61643;49.564;17.412;2024-01-06T00:14:25;12.52;;;5.07;;
73428;SDS011;61643;49.564;17.412;2024-01-06T00:16:51;17.77;;;6.15;;
73428;SDS011;61643;49.564;17.412;2024-01-06T00:19:17;10.55;;;5.97;;
73428;SDS011;61643;49.564;17.412;2024-01-06T00:21:43;10.05;;;5.55;;
73428;SDS011;61643;49.564;17.412;2024-01-06T00:24:09;12.02;;;6.07;;
73428;SDS011;61643;49.564;17.412;2024-01-06T00:26:35;10.48;;;5.32;;
73428;SDS011;61643;49.564;17.412;2024-01-06T00:29:01;11.55;;;5.53;;
73428;SDS011;61643;49.564;17.412;2024-01-06T00:31:27;7.97;;;4.97;;
73428;SDS011;61643;49.564;17.412;2024-01-06T00:33:53;9.88;;;5.00;;
73428;SDS011;61643;49.564;17.412;2024-01-06T00:36:19;8.73;;;4.65;;
73428;SDS011;61643;49.564;17.412;2024-01-06T00:38:45;10.63;;;4.68;;
73428;SDS011;61643;49.564;17.412;2024-01-06T00:41:11;10.38;;;4.78;;
73428;SDS011;61643;49.564;17.412;2024-01-06T00:43:39;12.43;;;4.65;;
73428;SDS011;61643;49.564;17.412;2024-01-06T00:46:05;9.23;;;4.50;;
73428;SDS011;61643;49.564;17.412;2024-01-06T00:48:31;12.35;;;4.70;;
73428;SDS011;61643;49.564;17.412;2024-01-06T00:50:57;10.68;;;4.43;;
73428;SDS011;61643;49.564;17.412;2024-01-06T00:53:23;13.60;;;5.18;;
73428;SDS011;61643;49.564;17.412;2024-01-06T00:55:49;11.93;;;5.10;;
73428;SDS011;61643;49.564;17.412;2024-01-06T00:58:15;11.15;;;5.15;;
73428;SDS011;61643;49.564;17.412;2024-01-06T01:00:41;14.82;;;5.00;;
73428;SDS011;61643;49.564;17.412;2024-01-06T01:03:06;11.35;;;5.57;;
73428;SDS011;61643;49.564;17.412;2024-01-06T01:05:32;9.55;;;4.32;;
73428;SDS011;61643;49.564;17.412;2024-01-06T01:07:58;9.05;;;5.20;;
73428;SDS011;61643;49.564;17.412;2024-01-06T01:10:24;9.43;;;5.05;;
73428;SDS011;61643;49.564;17.412;2024-01-06T01:12:50;14.45;;;5.70;;
73428;SDS011;61643;49.564;17.412;2024-01-06T01:15:16;8.95;;;4.68;;
73428;SDS011;61643;49.564;17.412;2024-01-06T01:17:43;11.50;;;5.05;;
73428;SDS011;61643;49.564;17.412;2024-01-06T01:20:09;11.45;;;5.60;;
73428;SDS011;61643;49.564;17.412;2024-01-06T01:22:35;11.38;;;5.15;;
73428;SDS011;61643;49.564;17.412;2024-01-06T01:25:02;11.20;;;4.95;;
73428;SDS011;61643;49.564;17.412;2024-01-06T01:27:33;11.52;;;4.90;;
73428;SDS011;61643;49.564;17.412;2024-01-06T01:29:59;11.55;;;5.40;;
73428;SDS011;61643;49.564;17.412;2024-01-06T01:32:25;10.30;;;5.10;;
73428;SDS011;61643;49.564;17.412;2024-01-06T01:34:51;8.70;;;5.10;;
73428;SDS011;61643;49.564;17.412;2024-01-06T01:37:17;12.90;;;5.88;;
73428;SDS011;61643;49.564;17.412;2024-01-06T01:39:43;11.80;;;5.00;;
73428;SDS011;61643;49.564;17.412;2024-01-06T01:42:09;8.32;;;4.25;;
73428;SDS011;61643;49.564;17.412;2024-01-06T01:44:35;7.97;;;4.68;;
73428;SDS011;61643;49.564;17.412;2024-01-06T01:47:02;10.05;;;4.80;;
73428;SDS011;61643;49.564;17.412;2024-01-06T01:49:30;9.93;;;4.70;;
73428;SDS011;61643;49.564;17.412;2024-01-06T01:51:58;9.23;;;4.63;;
73428;SDS011;61643;49.564;17.412;2024-01-06T01:54:24;12.00;;;5.30;;
73428;SDS011;61643;49.564;17.412;2024-01-06T01:56:51;12.45;;;5.20;;
73428;SDS011;61643;49.564;17.412;2024-01-06T01:59:17;9.82;;;5.10;;
73428;SDS011;61643;49.564;17.412;2024-01-06T02:01:44;15.23;;;5.55;;
73428;SDS011;61643;49.564;17.412;2024-01-06T02:04:11;13.75;;;5.32;;
73428;SDS011;61643;49.564;17.412;2024-01-06T02:06:37;11.68;;;5.50;;
73428;SDS011;61643;49.564;17.412;2024-01-06T02:09:03;9.95;;;5.30;;
73428;SDS011;61643;49.564;17.412;2024-01-06T02:11:31;11.98;;;5.45;;
73428;SDS011;61643;49.564;17.412;2024-01-06T02:13:57;8.98;;;4.57;;
73428;SDS011;61643;49.564;17.412;2024-01-06T02:16:23;8.88;;;4.72;;
73428;SDS011;61643;49.564;17.412;2024-01-06T02:18:49;8.73;;;4.18;;
73428;SDS011;61643;49.564;17.412;2024-01-06T02:21:15;13.73;;;4.43;;
73428;SDS011;61643;49.564;17.412;2024-01-06T02:23:41;9.07;;;4.50;;
73428;SDS011;61643;49.564;17.412;2024-01-06T02:26:07;14.30;;;4.72;;
73428;SDS011;61643;49.564;17.412;2024-01-06T02:28:33;8.90;;;4.20;;
73428;SDS011;61643;49.564;17.412;2024-01-06T02:30:59;9.60;;;4.20;;
73428;SDS011;61643;49.564;17.412;2024-01-06T02:33:25;10.07;;;4.60;;
73428;SDS011;61643;49.564;17.412;2024-01-06T02:35:51;9.73;;;4.53;;
73428;SDS011;61643;49.564;17.412;2024-01-06T02:38:17;9.07;;;4.70;;
73428;SDS011;61643;49.564;17.412;2024-01-06T02:40:43;8.70;;;4.60;;
73428;SDS011;61643;49.564;17.412;2024-01-06T02:43:09;10.18;;;4.90;;
73428;SDS011;61643;49.564;17.412;2024-01-06T02:45:35;9.57;;;4.82;;
73428;SDS011;61643;49.564;17.412;2024-01-06T02:48:01;10.23;;;4.68;;
73428;SDS011;61643;49.564;17.412;2024-01-06T02:50:28;11.43;;;5.13;;
73428;SDS011;61643;49.564;17.412;2024-01-06T02:52:54;11.38;;;5.22;;
73428;SDS011;61643;49.564;17.412;2024-01-06T02:55:20;12.23;;;4.60;;
73428;SDS011;61643;49.564;17.412;2024-01-06T02:57:46;9.23;;;5.15;;
73428;SDS011;61643;49.564;17.412;2024-01-06T03:00:12;11.07;;;4.88;;
73428;SDS011;61643;49.564;17.412;2024-01-06T03:02:41;8.93;;;4.18;;
73428;SDS011;61643;49.564;17.412;2024-01-06T03:05:08;10.18;;;4.65;;
73428;SDS011;61643;49.564;17.412;2024-01-06T03:07:35;8.10;;;4.20;;
73428;SDS011;61643;49.564;17.412;2024-01-06T03:10:01;7.82;;;4.28;;
73428;SDS011;61643;49.564;17.412;2024-01-06T03:12:28;8.30;;;4.10;;
73428;SDS011;61643;49.564;17.412;2024-01-06T03:14:54;10.23;;;4.47;;
73428;SDS011;61643;49.564;17.412;2024-01-06T03:17:20;6.00;;;3.78;;
73428;SDS011;61643;49.564;17.412;2024-01-06T03:19:46;8.32;;;4.35;;
73428;SDS011;61643;49.564;17.412;2024-01-06T03:22:11;7.30;;;3.80;;
73428;SDS011;61643;49.564;17.412;2024-01-06T03:24:37;9.63;;;4.65;;
73428;SDS011;61643;49.564;17.412;2024-01-06T03:27:05;10.95;;;4.05;;
73428;SDS011;61643;49.564;17.412;2024-01-06T03:29:31;9.88;;;4.18;;
73428;SDS011;61643;49.564;17.412;2024-01-06T03:31:57;8.50;;;4.22;;
73428;SDS011;61643;49.564;17.412;2024-01-06T03:34:23;8.35;;;3.60;;
73428;SDS011;61643;49.564;17.412;2024-01-06T03:36:50;8.32;;;4.15;;
73428;SDS011;61643;49.564;17.412;2024-01-06T03:39:16;6.68;;;3.92;;
73428;SDS011;61643;49.564;17.412;2024-01-06T03:41:42;7.93;;;4.07;;
73428;SDS011;61643;49.564;17.412;2024-01-06T03:44:08;6.13;;;3.38;;
73428;SDS011;61643;49.564;17.412;2024-01-06T03:46:34;8.10;;;3.45;;
73428;SDS011;61643;49.564;17.412;2024-01-06T03:49:00;11.40;;;3.95;;
73428;SDS011;61643;49.564;17.412;2024-01-06T03:51:26;6.35;;;3.60;;
73428;SDS011;61643;49.564;17.412;2024-01-06T03:53:52;10.88;;;4.38;;
73428;SDS011;61643;49.564;17.412;2024-01-06T03:56:18;7.93;;;4.57;;
73428;SDS011;61643;49.564;17.412;2024-01-06T03:58:44;12.10;;;4.40;;
73428;SDS011;61643;49.564;17.412;2024-01-06T04:01:10;12.02;;;4.57;;
73428;SDS011;61643;49.564;17.412;2024-01-06T04:03:36;7.93;;;3.70;;
73428;SDS011;61643;49.564;17.412;2024-01-06T04:06:02;8.77;;;4.22;;
73428;SDS011;61643;49.564;17.412;2024-01-06T04:08:28;12.88;;;3.95;;
73428;SDS011;61643;49.564;17.412;2024-01-06T04:10:54;7.60;;;4.18;;
73428;SDS011;61643;49.564;17.412;2024-01-06T04:13:21;7.70;;;4.07;;
73428;SDS011;61643;49.564;17.412;2024-01-06T04:15:46;10.23;;;4.18;;
73428;SDS011;61643;49.564;17.412;2024-01-06T04:18:12;9.73;;;4.47;;
73428;SDS011;61643;49.564;17.412;2024-01-06T04:20:38;8.80;;;4.25;;
73428;SDS011;61643;49.564;17.412;2024-01-06T04:23:04;8.65;;;3.78;;
73428;SDS011;61643;49.564;17.412;2024-01-06T04:25:30;9.20;;;4.25;;
73428;SDS011;61643;49.564;17.412;2024-01-06T04:27:56;9.88;;;4.63;;
73428;SDS011;61643;49.564;17.412;2024-01-06T04:30:22;10.48;;;3.63;;
73428;SDS011;61643;49.564;17.412;2024-01-06T04:32:49;12.30;;;4.43;;
73428;SDS011;61643;49.564;17.412;2024-01-06T04:35:16;10.55;;;4.07;;
73428;SDS011;61643;49.564;17.412;2024-01-06T04:37:42;8.30;;;4.40;;
73428;SDS011;61643;49.564;17.412;2024-01-06T04:40:08;10.38;;;4.70;;
73428;SDS011;61643;49.564;17.412;2024-01-06T04:42:34;8.00;;;4.30;;
73428;SDS011;61643;49.564;17.412;2024-01-06T04:45:00;9.85;;;4.35;;
73428;SDS011;61643;49.564;17.412;2024-01-06T04:47:26;7.63;;;3.88;;
73428;SDS011;61643;49.564;17.412;2024-01-06T04:49:53;9.45;;;3.72;;
73428;SDS011;61643;49.564;17.412;2024-01-06T04:52:19;7.43;;;3.95;;
73428;SDS011;61643;49.564;17.412;2024-01-06T04:54:45;9.20;;;4.13;;
73428;SDS011;61643;49.564;17.412;2024-01-06T04:57:11;11.13;;;4.40;;
73428;SDS011;61643;49.564;17.412;2024-01-06T04:59:37;11.70;;;5.60;;
73428;SDS011;61643;49.564;17.412;2024-01-06T05:02:03;16.40;;;6.00;;
73428;SDS011;61643;49.564;17.412;2024-01-06T05:04:29;16.27;;;6.00;;
73428;SDS011;61643;49.564;17.412;2024-01-06T05:06:57;16.00;;;5.97;;
73428;SDS011;61643;49.564;17.412;2024-01-06T05:09:24;14.02;;;6.10;;
73428;SDS011;61643;49.564;17.412;2024-01-06T05:11:51;16.30;;;5.75;;
73428;SDS011;61643;49.564;17.412;2024-01-06T05:14:17;13.80;;;5.85;;
73428;SDS011;61643;49.564;17.412;2024-01-06T05:16:42;18.30;;;6.63;;
73428;SDS011;61643;49.564;17.412;2024-01-06T05:19:08;16.73;;;6.05;;
73428;SDS011;61643;49.564;17.412;2024-01-06T05:21:35;13.75;;;6.57;;
73428;SDS011;61643;49.564;17.412;2024-01-06T05:24:01;16.02;;;6.03;;
73428;SDS011;61643;49.564;17.412;2024-01-06T05:26:27;14.48;;;6.20;;
73428;SDS011;61643;49.564;17.412;2024-01-06T05:28:52;14.88;;;6.05;;
73428;SDS011;61643;49.564;17.412;2024-01-06T05:31:18;12.88;;;5.85;;
73428;SDS011;61643;49.564;17.412;2024-01-06T05:33:44;13.75;;;5.85;;
73428;SDS011;61643;49.564;17.412;2024-01-06T05:36:10;13.70;;;6.45;;
73428;SDS011;61643;49.564;17.412;2024-01-06T05:38:36;13.30;;;5.63;;
73428;SDS011;61643;49.564;17.412;2024-01-06T05:41:02;12.60;;;5.63;;
73428;SDS011;61643;49.564;17.412;2024-01-06T05:43:28;13.45;;;6.05;;
73428;SDS011;61643;49.564;17.412;2024-01-06T05:45:55;13.25;;;5.43;;
73428;SDS011;61643;49.564;17.412;2024-01-06T05:48:21;10.18;;;5.35;;
73428;SDS011;61643;49.564;17.412;2024-01-06T05:50:47;12.82;;;5.28;;
73428;SDS011;61643;49.564;17.412;2024-01-06T05:53:12;14.63;;;6.50;;
73428;SDS011;61643;49.564;17.412;2024-01-06T05:55:39;10.98;;;5.57;;
73428;SDS011;61643;49.564;17.412;2024-01-06T05:58:05;11.00;;;5.50;;
73428;SDS011;61643;49.564;17.412;2024-01-06T06:00:31;12.15;;;6.00;;
73428;SDS011;61643;49.564;17.412;2024-01-06T06:02:57;13.30;;;6.13;;
73428;SDS011;61643;49.564;17.412;2024-01-06T06:05:24;13.05;;;5.60;;
73428;SDS011;61643;49.564;17.412;2024-01-06T06:07:50;14.32;;;5.32;;
73428;SDS011;61643;49.564;17.412;2024-01-06T06:10:16;14.10;;;5.93;;
73428;SDS011;61643;49.564;17.412;2024-01-06T06:12:44;12.48;;;6.10;;
73428;SDS011;61643;49.564;17.412;2024-01-06T06:15:10;10.60;;;5.95;;
73428;SDS011;61643;49.564;17.412;2024-01-06T06:17:36;13.25;;;6.22;;
73428;SDS011;61643;49.564;17.412;2024-01-06T06:20:02;14.85;;;6.70;;
73428;SDS011;61643;49.564;17.412;2024-01-06T06:22:28;13.93;;;6.55;;
73428;SDS011;61643;49.564;17.412;2024-01-06T06:24:57;14.85;;;6.68;;
73428;SDS011;61643;49.564;17.412;2024-01-06T06:27:25;12.48;;;6.47;;
73428;SDS011;61643;49.564;17.412;2024-01-06T06:29:52;11.40;;;6.75;;
73428;SDS011;61643;49.564;17.412;2024-01-06T06:32:18;17.30;;;7.05;;
73428;SDS011;61643;49.564;17.412;2024-01-06T06:34:44;17.70;;;6.78;;
73428;SDS011;61643;49.564;17.412;2024-01-06T06:37:11;14.57;;;7.10;;
73428;SDS011;61643;49.564;17.412;2024-01-06T06:39:37;16.40;;;7.38;;
73428;SDS011;61643;49.564;17.412;2024-01-06T06:42:03;14.27;;;6.93;;
73428;SDS011;61643;49.564;17.412;2024-01-06T06:44:29;14.07;;;6.97;;
73428;SDS011;61643;49.564;17.412;2024-01-06T06:46:55;14.57;;;8.13;;
73428;SDS011;61643;49.564;17.412;2024-01-06T06:49:22;16.70;;;7.65;;
73428;SDS011;61643;49.564;17.412;2024-01-06T06:51:48;30.30;;;11.75;;
73428;SDS011;61643;49.564;17.412;2024-01-06T06:54:14;29.38;;;10.10;;
73428;SDS011;61643;49.564;17.412;2024-01-06T06:56:43;67.13;;;22.25;;
73428;SDS011;61643;49.564;17.412;2024-01-06T06:59:10;108.30;;;31.63;;
73428;SDS011;61643;49.564;17.412;2024-01-06T07:01:36;160.80;;;50.38;;
73428;SDS011;61643;49.564;17.412;2024-01-06T07:04:03;98.40;;;34.72;;
73428;SDS011;61643;49.564;17.412;2024-01-06T07:06:29;59.72;;;20.05;;
73428;SDS011;61643;49.564;17.412;2024-01-06T07:08:56;50.90;;;17.55;;
73428;SDS011;61643;49.564;17.412;2024-01-06T07:11:22;29.52;;;11.60;;
73428;SDS011;61643;49.564;17.412;2024-01-06T07:13:49;42.78;;;14.73;;
73428;SDS011;61643;49.564;17.412;2024-01-06T07:16:15;42.28;;;15.38;;
73428;SDS011;61643;49.564;17.412;2024-01-06T07:18:41;31.45;;;13.45;;
73428;SDS011;61643;49.564;17.412;2024-01-06T07:21:07;31.55;;;13.13;;
73428;SDS011;61643;49.564;17.412;2024-01-06T07:23:33;25.05;;;11.60;;
73428;SDS011;61643;49.564;17.412;2024-01-06T07:26:00;33.50;;;14.32;;
73428;SDS011;61643;49.564;17.412;2024-01-06T07:28:26;29.63;;;13.02;;
73428;SDS011;61643;49.564;17.412;2024-01-06T07:30:52;37.28;;;14.77;;
73428;SDS011;61643;49.564;17.412;2024-01-06T07:33:18;34.05;;;14.98;;
73428;SDS011;61643;49.564;17.412;2024-01-06T07:35:46;41.22;;;17.23;;
73428;SDS011;61643;49.564;17.412;2024-01-06T07:38:12;37.13;;;15.00;;
73428;SDS011;61643;49.564;17.412;2024-01-06T07:40:39;43.38;;;16.25;;
73428;SDS011;61643;49.564;17.412;2024-01-06T07:43:05;38.45;;;15.05;;
73428;SDS011;61643;49.564;17.412;2024-01-06T07:45:31;34.97;;;14.85;;
73428;SDS011;61643;49.564;17.412;2024-01-06T07:47:58;35.58;;;14.10;;
73428;SDS011;61643;49.564;17.412;2024-01-06T07:50:24;32.72;;;13.48;;
73428;SDS011;61643;49.564;17.412;2024-01-06T07:52:51;33.25;;;13.30;;
73428;SDS011;61643;49.564;17.412;2024-01-06T07:55:17;36.35;;;16.15;;
73428;SDS011;61643;49.564;17.412;2024-01-06T07:57:44;58.08;;;21.10;;
73428;SDS011;61643;49.564;17.412;2024-01-06T08:00:10;29.13;;;12.43;;
73428;SDS011;61643;49.564;17.412;2024-01-06T08:02:40;16.67;;;8.15;;
73428;SDS011;61643;49.564;17.412;2024-01-06T08:05:06;20.35;;;10.05;;
73428;SDS011;61643;49.564;17.412;2024-01-06T08:07:33;24.27;;;9.65;;
73428;SDS011;61643;49.564;17.412;2024-01-06T08:10:00;19.10;;;9.20;;
73428;SDS011;61643;49.564;17.412;2024-01-06T08:12:26;20.75;;;9.10;;
73428;SDS011;61643;49.564;17.412;2024-01-06T08:14:52;20.45;;;9.70;;
73428;SDS011;61643;49.564;17.412;2024-01-06T08:17:18;23.45;;;11.13;;
73428;SDS011;61643;49.564;17.412;2024-01-06T08:19:44;24.08;;;11.77;;
73428;SDS011;61643;49.564;17.412;2024-01-06T08:22:12;45.80;;;20.75;;
73428;SDS011;61643;49.564;17.412;2024-01-06T08:24:39;33.88;;;17.40;;
73428;SDS011;61643;49.564;17.412;2024-01-06T08:27:05;24.88;;;12.10;;
73428;SDS011;61643;49.564;17.412;2024-01-06T08:29:31;22.42;;;8.80;;
73428;SDS011;61643;49.564;17.412;2024-01-06T08:31:57;17.88;;;8.80;;
73428;SDS011;61643;49.564;17.412;2024-01-06T08:34:23;16.30;;;8.57;;
73428;SDS011;61643;49.564;17.412;2024-01-06T08:36:49;14.90;;;7.45;;
73428;SDS011;61643;49.564;17.412;2024-01-06T08:39:16;13.70;;;7.55;;
73428;SDS011;61643;49.564;17.412;2024-01-06T08:41:42;17.40;;;8.43;;
73428;SDS011;61643;49.564;17.412;2024-01-06T08:44:08;17.95;;;8.50;;
73428;SDS011;61643;49.564;17.412;2024-01-06T08:46:34;17.20;;;8.90;;
73428;SDS011;61643;49.564;17.412;2024-01-06T08:49:00;18.70;;;8.88;;
73428;SDS011;61643;49.564;17.412;2024-01-06T08:51:26;21.20;;;10.13;;
73428;SDS011;61643;49.564;17.412;2024-01-06T08:53:52;22.15;;;9.80;;
73428;SDS011;61643;49.564;17.412;2024-01-06T08:56:19;19.55;;;9.02;;
73428;SDS011;61643;49.564;17.412;2024-01-06T08:58:45;20.52;;;9.95;;
73428;SDS011;61643;49.564;17.412;2024-01-06T09:01:11;18.67;;;10.27;;
73428;SDS011;61643;49.564;17.412;2024-01-06T09:03:39;19.85;;;9.98;;
73428;SDS011;61643;49.564;17.412;2024-01-06T09:06:05;21.83;;;10.23;;
73428;SDS011;61643;49.564;17.412;2024-01-06T09:08:31;21.15;;;9.65;;
73428;SDS011;61643;49.564;17.412;2024-01-06T09:10:57;20.95;;;11.10;;
73428;SDS011;61643;49.564;17.412;2024-01-06T09:13:24;32.40;;;15.88;;
73428;SDS011;61643;49.564;17.412;2024-01-06T09:15:51;32.33;;;13.63;;
73428;SDS011;61643;49.564;17.412;2024-01-06T09:18:17;33.50;;;14.25;;
73428;SDS011;61643;49.564;17.412;2024-01-06T09:20:43;29.70;;;15.75;;
73428;SDS011;61643;49.564;17.412;2024-01-06T09:23:09;23.10;;;10.65;;
73428;SDS011;61643;49.564;17.412;2024-01-06T09:25:38;20.65;;;10.85;;
73428;SDS011;61643;49.564;17.412;2024-01-06T09:28:05;20.17;;;10.65;;
73428;SDS011;61643;49.564;17.412;2024-01-06T09:30:31;20.05;;;11.10;;
73428;SDS011;61643;49.564;17.412;2024-01-06T09:32:58;25.38;;;11.45;;
73428;SDS011;61643;49.564;17.412;2024-01-06T09:35:24;22.50;;;11.00;;
73428;SDS011;61643;49.564;17.412;2024-01-06T09:37:49;21.23;;;11.48;;
73428;SDS011;61643;49.564;17.412;2024-01-06T09:40:20;35.97;;;17.55;;
73428;SDS011;61643;49.564;17.412;2024-01-06T09:42:49;26.73;;;13.07;;
73428;SDS011;61643;49.564;17.412;2024-01-06T09:45:16;28.80;;;13.43;;
73428;SDS011;61643;49.564;17.412;2024-01-06T09:47:42;27.60;;;13.88;;
73428;SDS011;61643;49.564;17.412;2024-01-06T09:50:13;29.45;;;14.18;;
73428;SDS011;61643;49.564;17.412;2024-01-06T09:52:45;43.40;;;20.25;;
73428;SDS011;61643;49.564;17.412;2024-01-06T09:55:17;29.10;;;15.20;;
73428;SDS011;61643;49.564;17.412;2024-01-06T09:57:48;27.70;;;13.55;;
73428;SDS011;61643;49.564;17.412;2024-01-06T10:00:14;34.70;;;14.00;;
73428;SDS011;61643;49.564;17.412;2024-01-06T10:02:41;30.80;;;14.70;;
73428;SDS011;61643;49.564;17.412;2024-01-06T10:05:08;27.85;;;13.77;;
73428;SDS011;61643;49.564;17.412;2024-01-06T10:07:37;29.50;;;14.60;;
73428;SDS011;61643;49.564;17.412;2024-01-06T10:10:03;27.65;;;14.82;;
73428;SDS011;61643;49.564;17.412;2024-01-06T10:12:33;32.67;;;14.98;;
73428;SDS011;61643;49.564;17.412;2024-01-06T10:14:59;32.83;;;16.90;;
73428;SDS011;61643;49.564;17.412;2024-01-06T10:17:25;30.40;;;14.88;;
73428;SDS011;61643;49.564;17.412;2024-01-06T10:19:50;26.00;;;13.80;;
73428;SDS011;61643;49.564;17.412;2024-01-06T10:22:18;28.20;;;14.32;;
73428;SDS011;61643;49.564;17.412;2024-01-06T10:24:44;33.30;;;14.80;;
73428;SDS011;61643;49.564;17.412;2024-01-06T10:27:11;26.30;;;12.85;;
73428;SDS011;61643;49.564;17.412;2024-01-06T10:29:37;52.80;;;25.30;;
73428;SDS011;61643;49.564;17.412;2024-01-06T10:32:03;75.68;;;36.30;;
73428;SDS011;61643;49.564;17.412;2024-01-06T10:34:30;63.00;;;28.95;;
73428;SDS011;61643;49.564;17.412;2024-01-06T10:36:58;78.32;;;33.42;;
73428;SDS011;61643;49.564;17.412;2024-01-06T10:39:24;84.82;;;33.33;;
73428;SDS011;61643;49.564;17.412;2024-01-06T10:41:51;80.80;;;32.72;;
73428;SDS011;61643;49.564;17.412;2024-01-06T10:44:18;61.42;;;27.13;;
73428;SDS011;61643;49.564;17.412;2024-01-06T10:46:46;50.05;;;22.50;;
73428;SDS011;61643;49.564;17.412;2024-01-06T10:49:15;36.75;;;17.23;;
73428;SDS011;61643;49.564;17.412;2024-01-06T10:54:11;26.23;;;12.35;;
73428;SDS011;61643;49.564;17.412;2024-01-06T10:56:38;22.35;;;10.98;;
73428;SDS011;61643;49.564;17.412;2024-01-06T10:59:04;27.02;;;13.75;;
73428;SDS011;61643;49.564;17.412;2024-01-06T11:01:33;19.67;;;10.23;;
73428;SDS011;61643;49.564;17.412;2024-01-06T11:04:00;19.38;;;9.90;;
73428;SDS011;61643;49.564;17.412;2024-01-06T11:06:29;16.75;;;8.10;;
73428;SDS011;61643;49.564;17.412;2024-01-06T11:09:02;13.32;;;6.95;;
73428;SDS011;61643;49.564;17.412;2024-01-06T11:11:35;13.68;;;6.88;;
73428;SDS011;61643;49.564;17.412;2024-01-06T11:14:18;15.32;;;6.38;;
73428;SDS011;61643;49.564;17.412;2024-01-06T11:16:47;14.25;;;7.05;;
73428;SDS011;61643;49.564;17.412;2024-01-06T11:19:41;11.65;;;6.32;;
73428;SDS011;61643;49.564;17.412;2024-01-06T11:22:27;13.07;;;4.80;;
73428;SDS011;61643;49.564;17.412;2024-01-06T11:25:03;6.88;;;4.35;;
73428;SDS011;61643;49.564;17.412;2024-01-06T11:27:31;10.82;;;4.97;;
73428;SDS011;61643;49.564;17.412;2024-01-06T11:29:58;7.53;;;3.42;;
73428;SDS011;61643;49.564;17.412;2024-01-06T11:34:52;5.20;;;3.42;;
73428;SDS011;61643;49.564;17.412;2024-01-06T11:39:49;5.25;;;3.40;;
73428;SDS011;61643;49.564;17.412;2024-01-06T11:42:15;7.10;;;4.00;;
73428;SDS011;61643;49.564;17.412;2024-01-06T11:44:45;8.77;;;4.90;;
73428;SDS011;61643;49.564;17.412;2024-01-06T11:47:16;11.48;;;6.25;;
73428;SDS011;61643;49.564;17.412;2024-01-06T11:49:44;12.73;;;5.47;;
73428;SDS011;61643;49.564;17.412;2024-01-06T11:52:12;8.60;;;4.70;;
73428;SDS011;61643;49.564;17.412;2024-01-06T11:54:38;11.55;;;5.28;;
73428;SDS011;61643;49.564;17.412;2024-01-06T11:57:04;16.30;;;6.38;;
73428;SDS011;61643;49.564;17.412;2024-01-06T11:59:30;16.08;;;8.38;;
73428;SDS011;61643;49.564;17.412;2024-01-06T12:01:56;18.90;;;7.93;;
73428;SDS011;61643;49.564;17.412;2024-01-06T12:04:22;15.52;;;6.68;;
73428;SDS011;61643;49.564;17.412;2024-01-06T12:06:50;16.20;;;8.02;;
73428;SDS011;61643;49.564;17.412;2024-01-06T12:09:16;19.63;;;8.80;;
73428;SDS011;61643;49.564;17.412;2024-01-06T12:11:44;21.27;;;9.73;;
73428;SDS011;61643;49.564;17.412;2024-01-06T12:14:12;28.27;;;12.48;;
73428;SDS011;61643;49.564;17.412;2024-01-06T12:16:39;30.92;;;14.07;;
73428;SDS011;61643;49.564;17.412;2024-01-06T12:19:05;25.00;;;10.38;;
73428;SDS011;61643;49.564;17.412;2024-01-06T12:21:31;11.00;;;5.85;;
73428;SDS011;61643;49.564;17.412;2024-01-06T12:24:17;15.95;;;7.18;;
73428;SDS011;61643;49.564;17.412;2024-01-06T12:26:47;16.65;;;7.25;;
73428;SDS011;61643;49.564;17.412;2024-01-06T12:29:14;16.42;;;7.70;;
73428;SDS011;61643;49.564;17.412;2024-01-06T12:31:42;17.00;;;7.15;;
73428;SDS011;61643;49.564;17.412;2024-01-06T12:34:09;15.23;;;7.38;;
73428;SDS011;61643;49.564;17.412;2024-01-06T12:36:37;9.85;;;5.10;;
73428;SDS011;61643;49.564;17.412;2024-01-06T12:39:04;10.07;;;4.00;;
73428;SDS011;61643;49.564;17.412;2024-01-06T12:41:30;10.90;;;5.18;;
73428;SDS011;61643;49.564;17.412;2024-01-06T12:43:59;10.00;;;5.45;;
73428;SDS011;61643;49.564;17.412;2024-01-06T12:46:26;9.63;;;4.57;;
73428;SDS011;61643;49.564;17.412;2024-01-06T12:48:52;10.57;;;5.18;;
73428;SDS011;61643;49.564;17.412;2024-01-06T12:51:18;10.75;;;4.75;;
73428;SDS011;61643;49.564;17.412;2024-01-06T12:53:44;7.57;;;4.03;;
73428;SDS011;61643;49.564;17.412;2024-01-06T12:56:10;8.80;;;4.20;;
73428;SDS011;61643;49.564;17.412;2024-01-06T12:58:36;10.70;;;4.20;;
73428;SDS011;61643;49.564;17.412;2024-01-06T13:01:02;11.35;;;3.70;;
73428;SDS011;61643;49.564;17.412;2024-01-06T13:03:28;7.90;;;4.22;;
73428;SDS011;61643;49.564;17.412;2024-01-06T13:05:54;12.48;;;5.95;;
73428;SDS011;61643;49.564;17.412;2024-01-06T13:08:20;20.50;;;7.95;;
73428;SDS011;61643;49.564;17.412;2024-01-06T13:10:46;17.30;;;7.65;;
73428;SDS011;61643;49.564;17.412;2024-01-06T13:13:12;16.33;;;7.43;;
73428;SDS011;61643;49.564;17.412;2024-01-06T13:15:38;16.20;;;7.45;;
73428;SDS011;61643;49.564;17.412;2024-01-06T13:18:04;12.70;;;6.38;;
73428;SDS011;61643;49.564;17.412;2024-01-06T13:20:30;21.42;;;10.88;;
73428;SDS011;61643;49.564;17.412;2024-01-06T13:22:57;34.90;;;14.13;;
73428;SDS011;61643;49.564;17.412;2024-01-06T13:25:23;32.00;;;12.10;;
73428;SDS011;61643;49.564;17.412;2024-01-06T13:27:49;37.22;;;13.45;;
73428;SDS011;61643;49.564;17.412;2024-01-06T13:30:16;30.85;;;12.82;;
73428;SDS011;61643;49.564;17.412;2024-01-06T13:32:42;29.35;;;10.75;;
73428;SDS011;61643;49.564;17.412;2024-01-06T13:35:08;22.60;;;10.60;;
73428;SDS011;61643;49.564;17.412;2024-01-06T13:37:37;30.60;;;12.98;;
73428;SDS011;61643;49.564;17.412;2024-01-06T13:40:03;25.40;;;11.18;;
73428;SDS011;61643;49.564;17.412;2024-01-06T13:42:29;26.80;;;10.90;;
73428;SDS011;61643;49.564;17.412;2024-01-06T13:44:55;26.63;;;11.52;;
73428;SDS011;61643;49.564;17.412;2024-01-06T13:47:21;23.92;;;10.35;;
73428;SDS011;61643;49.564;17.412;2024-01-06T13:49:47;23.83;;;10.85;;
73428;SDS011;61643;49.564;17.412;2024-01-06T13:52:13;40.20;;;18.05;;
73428;SDS011;61643;49.564;17.412;2024-01-06T13:54:39;32.13;;;14.90;;
73428;SDS011;61643;49.564;17.412;2024-01-06T13:57:05;34.28;;;14.68;;
73428;SDS011;61643;49.564;17.412;2024-01-06T13:59:31;19.10;;;8.98;;
73428;SDS011;61643;49.564;17.412;2024-01-06T14:01:57;22.25;;;9.35;;
73428;SDS011;61643;49.564;17.412;2024-01-06T14:04:23;22.33;;;10.13;;
73428;SDS011;61643;49.564;17.412;2024-01-06T14:06:49;27.60;;;11.65;;
73428;SDS011;61643;49.564;17.412;2024-01-06T14:09:21;25.30;;;11.75;;
73428;SDS011;61643;49.564;17.412;2024-01-06T14:11:47;21.92;;;8.68;;
73428;SDS011;61643;49.564;17.412;2024-01-06T14:14:13;29.73;;;12.40;;
73428;SDS011;61643;49.564;17.412;2024-01-06T14:16:39;24.80;;;10.65;;
73428;SDS011;61643;49.564;17.412;2024-01-06T14:19:05;29.80;;;13.27;;
73428;SDS011;61643;49.564;17.412;2024-01-06T14:21:31;22.65;;;10.93;;
73428;SDS011;61643;49.564;17.412;2024-01-06T14:23:57;34.75;;;13.70;;
73428;SDS011;61643;49.564;17.412;2024-01-06T14:26:24;37.05;;;14.98;;